createdAt,value
2018-09-10T00:00:59.929Z,14.60
2018-09-10T00:03:28.888Z,14.50
2018-09-10T00:05:58.092Z,14.40
2018-09-10T00:08:27.077Z,14.40
2018-09-10T00:10:56.052Z,14.50
2018-09-10T00:13:25.118Z,14.50
2018-09-10T00:15:54.159Z,14.50
2018-09-10T00:18:23.156Z,14.40
2018-09-10T00:20:52.127Z,14.40
2018-09-10T00:23:21.132Z,14.40
2018-09-10T00:25:50.116Z,14.40
2018-09-10T00:28:19.163Z,14.40
2018-09-10T00:30:48.161Z,14.40
2018-09-10T00:33:17.173Z,14.30
2018-09-10T00:35:46.139Z,14.40
2018-09-10T00:38:15.133Z,14.30
2018-09-10T00:40:44.143Z,14.30
2018-09-10T00:43:13.211Z,14.30
2018-09-10T00:45:42.207Z,14.20
2018-09-10T00:48:11.202Z,14.20
2018-09-10T00:50:40.191Z,14.20
2018-09-10T00:53:09.328Z,14.20
2018-09-10T00:55:38.267Z,14.30
2018-09-10T00:58:07.252Z,14.30
2018-09-10T01:00:36.222Z,14.30
2018-09-10T01:03:05.237Z,14.30
2018-09-10T01:05:34.202Z,14.30
2018-09-10T01:08:03.253Z,14.30
2018-09-10T01:10:32.243Z,14.30
2018-09-10T01:13:01.256Z,14.20
2018-09-10T01:15:30.385Z,14.10
2018-09-10T01:17:59.379Z,14.10
2018-09-10T01:20:28.368Z,14.10
2018-09-10T01:22:57.359Z,14.20
2018-09-10T01:25:26.349Z,14.20
2018-09-10T01:27:55.591Z,14.30
2018-09-10T01:30:24.566Z,14.30
2018-09-10T01:32:53.583Z,14.40
2018-09-10T01:35:22.641Z,14.40
2018-09-10T01:37:51.638Z,14.30
2018-09-10T01:40:20.610Z,14.40
2018-09-10T01:42:49.597Z,14.40
2018-09-10T01:45:18.584Z,14.40
2018-09-10T01:47:47.656Z,14.40
2018-09-10T01:50:16.675Z,14.40
2018-09-10T01:52:45.650Z,14.40
2018-09-10T01:55:14.641Z,14.40
2018-09-10T01:57:43.621Z,14.40
2018-09-10T02:00:12.584Z,14.40
2018-09-10T02:02:41.942Z,14.40
2018-09-10T02:05:11.049Z,14.40
2018-09-10T02:07:40.056Z,14.40
2018-09-10T02:10:09.101Z,14.40
2018-09-10T02:12:38.085Z,14.30
2018-09-10T02:15:07.235Z,14.30
2018-09-10T02:17:36.284Z,14.30
2018-09-10T02:20:05.342Z,14.30
2018-09-10T02:22:34.321Z,14.30
2018-09-10T02:25:03.417Z,14.30
2018-09-10T02:27:32.499Z,14.40
2018-09-10T02:30:01.525Z,14.40
2018-09-10T02:32:30.515Z,14.20
2018-09-10T02:34:59.505Z,14.10
2018-09-10T02:37:28.488Z,14.10
2018-09-10T02:39:57.515Z,14.10
2018-09-10T02:42:26.509Z,14.10
2018-09-10T02:44:55.519Z,14.10
2018-09-10T02:47:24.493Z,14.10
2018-09-10T02:49:53.508Z,14.10
2018-09-10T02:52:22.607Z,14.10
2018-09-10T02:54:51.691Z,14.10
2018-09-10T02:57:20.729Z,14.10
2018-09-10T02:59:49.716Z,14.10
2018-09-10T03:02:18.692Z,14.00
2018-09-10T03:04:47.682Z,13.90
2018-09-10T03:07:22.222Z,14.00
2018-09-10T03:09:51.250Z,13.90
2018-09-10T03:12:20.384Z,13.90
2018-09-10T03:14:49.405Z,14.00
2018-09-10T03:17:18.349Z,14.00
2018-09-10T03:19:47.369Z,13.90
2018-09-10T03:22:16.446Z,14.00
2018-09-10T03:24:45.469Z,14.10
2018-09-10T03:27:14.557Z,14.10
2018-09-10T03:29:43.580Z,14.00
2018-09-10T03:32:12.554Z,14.00
2018-09-10T03:34:41.552Z,14.10
2018-09-10T03:37:10.576Z,14.10
2018-09-10T03:39:39.607Z,14.10
2018-09-10T03:42:08.566Z,14.00
2018-09-10T03:44:37.579Z,14.00
2018-09-10T03:47:06.561Z,14.00
2018-09-10T03:49:35.555Z,14.20
2018-09-10T03:52:04.630Z,14.10
2018-09-10T03:54:33.619Z,14.10
2018-09-10T03:57:02.561Z,14.10
2018-09-10T03:59:31.537Z,14.20
2018-09-10T04:02:00.514Z,14.20
2018-09-10T04:04:29.591Z,14.30
2018-09-10T04:06:58.589Z,14.30
2018-09-10T04:09:27.611Z,14.30
2018-09-10T04:11:56.604Z,14.30
2018-09-10T04:14:25.582Z,14.40
2018-09-10T04:16:54.630Z,14.40
2018-09-10T04:19:23.600Z,14.30
2018-09-10T04:21:52.589Z,14.40
2018-09-10T04:24:21.593Z,14.30
2018-09-10T04:26:50.585Z,14.30
2018-09-10T04:29:19.553Z,14.30
2018-09-10T04:31:48.600Z,14.30
2018-09-10T04:34:17.993Z,14.40
2018-09-10T04:36:46.979Z,14.40
2018-09-10T04:39:16.718Z,14.50
2018-09-10T04:41:45.696Z,14.50
2018-09-10T04:44:14.735Z,14.50
2018-09-10T04:46:43.917Z,14.50
2018-09-10T04:49:18.612Z,14.50
2018-09-10T04:51:55.560Z,14.50
2018-09-10T04:54:30.412Z,14.50
2018-09-10T04:57:04.933Z,14.50
2018-09-10T04:59:39.418Z,14.60
2018-09-10T05:02:09.164Z,14.60
2018-09-10T05:04:38.820Z,14.60
2018-09-10T05:07:08.031Z,14.60
2018-09-10T05:09:37.139Z,14.60
2018-09-10T05:12:06.285Z,14.70
2018-09-10T05:14:35.227Z,14.80
2018-09-10T05:17:04.333Z,14.80
2018-09-10T05:19:34.264Z,14.90
2018-09-10T05:22:03.368Z,14.90
2018-09-10T05:24:32.344Z,14.90
2018-09-10T05:27:01.323Z,15.00
2018-09-10T05:29:30.345Z,15.00
2018-09-10T05:32:00.883Z,15.00
2018-09-10T05:34:29.982Z,15.20
2018-09-10T05:39:26.749Z,15.20
2018-09-10T05:41:55.756Z,15.30
2018-09-10T05:44:24.713Z,15.40
2018-09-10T05:46:54.123Z,15.50
2018-09-10T05:49:23.138Z,15.50
2018-09-10T05:51:52.638Z,15.70
2018-09-10T05:54:21.633Z,15.90
2018-09-10T05:56:50.635Z,16.10
2018-09-10T05:59:19.627Z,16.30
2018-09-10T06:01:48.783Z,16.40
2018-09-10T06:04:17.757Z,16.40
2018-09-10T06:06:46.751Z,16.40
2018-09-10T06:09:15.768Z,16.40
2018-09-10T06:11:44.768Z,16.40
2018-09-10T06:14:14.010Z,16.50
2018-09-10T06:16:43.136Z,16.50
2018-09-10T06:19:12.015Z,16.40
2018-09-10T06:21:41.029Z,16.60
2018-09-10T06:24:10.880Z,16.50
2018-09-10T06:26:39.871Z,16.50
2018-09-10T06:29:08.946Z,16.50
2018-09-10T06:31:37.971Z,16.50
2018-09-10T06:34:06.981Z,16.50
2018-09-10T06:36:35.970Z,16.50
2018-09-10T06:39:08.842Z,16.50
2018-09-10T06:41:37.858Z,16.60
2018-09-10T06:44:06.922Z,16.70
2018-09-10T06:46:36.065Z,16.70
2018-09-10T06:49:05.167Z,16.90
2018-09-10T06:51:34.153Z,17.00
2018-09-10T06:54:03.219Z,17.10
2018-09-10T06:56:32.217Z,17.20
2018-09-10T06:59:01.200Z,17.50
2018-09-10T07:01:30.208Z,17.70
2018-09-10T07:03:59.170Z,17.90
2018-09-10T07:06:28.245Z,18.00
2018-09-10T07:08:57.346Z,18.10
2018-09-10T07:11:26.401Z,18.00
2018-09-10T07:13:55.379Z,18.00
2018-09-10T07:16:25.227Z,17.90
2018-09-10T07:18:54.290Z,17.90
2018-09-10T07:21:23.232Z,17.80
2018-09-10T07:23:52.203Z,17.70
2018-09-10T07:26:21.920Z,17.70
2018-09-10T07:28:50.942Z,17.60
2018-09-10T07:31:19.963Z,17.60
2018-09-10T07:33:48.935Z,17.60
2018-09-10T07:36:18.723Z,17.60
2018-09-10T07:38:47.798Z,17.60
2018-09-10T07:41:16.788Z,17.60
2018-09-10T07:43:46.331Z,17.60
2018-09-10T07:46:15.190Z,17.60
2018-09-10T07:48:44.275Z,17.50
2018-09-10T07:51:13.314Z,17.50
2018-09-10T07:53:42.302Z,17.50
2018-09-10T07:56:11.261Z,17.60
2018-09-10T07:58:40.273Z,17.60
2018-09-10T08:01:09.244Z,17.70
2018-09-10T08:03:38.291Z,17.70
2018-09-10T08:06:07.273Z,17.60
2018-09-10T08:08:36.291Z,17.70
2018-09-10T08:11:05.271Z,17.70
2018-09-10T08:13:34.293Z,17.70
2018-09-10T08:16:03.342Z,17.70
2018-09-10T08:18:32.326Z,17.80
2018-09-10T08:21:01.309Z,17.80
2018-09-10T08:23:31.405Z,17.80
2018-09-10T08:26:00.423Z,17.90
2018-09-10T08:28:29.415Z,17.90
2018-09-10T08:30:58.410Z,17.90
2018-09-10T08:33:27.401Z,17.90
2018-09-10T08:35:56.357Z,18.00
2018-09-10T08:38:25.343Z,18.10
2018-09-10T08:40:54.586Z,18.20
2018-09-10T08:43:23.583Z,18.30
2018-09-10T08:45:52.572Z,18.40
2018-09-10T08:48:21.629Z,18.50
2018-09-10T08:50:50.556Z,18.70
2018-09-10T08:53:23.549Z,18.90
2018-09-10T08:55:52.797Z,19.40
2018-09-10T08:58:21.565Z,19.60
2018-09-10T09:00:50.581Z,19.80
2018-09-10T09:03:19.608Z,20.00
2018-09-10T09:05:48.655Z,20.10
2018-09-10T09:08:17.639Z,20.30
2018-09-10T09:10:46.822Z,20.50
2018-09-10T09:13:15.896Z,20.70
2018-09-10T09:15:44.939Z,21.20
2018-09-10T09:18:13.948Z,21.50
2018-09-10T09:20:42.946Z,21.80
2018-09-10T09:23:11.978Z,22.00
2018-09-10T09:25:41.003Z,22.00
2018-09-10T09:28:10.012Z,21.90
2018-09-10T09:30:39.045Z,22.00
2018-09-10T09:33:08.039Z,22.00
2018-09-10T09:35:42.490Z,22.10
2018-09-10T09:38:16.792Z,22.00
2018-09-10T09:40:51.138Z,21.90
2018-09-10T09:43:25.348Z,21.90
2018-09-10T09:45:59.747Z,22.10
2018-09-10T09:48:28.730Z,22.20
2018-09-10T09:50:57.930Z,22.20
2018-09-10T09:53:26.996Z,22.20
2018-09-10T09:55:56.006Z,22.30
2018-09-10T09:58:25.152Z,22.40
2018-09-10T10:00:56.433Z,22.50
2018-09-10T10:03:30.928Z,22.60
2018-09-10T10:05:59.918Z,22.60
2018-09-10T10:08:28.919Z,22.60
2018-09-10T10:10:57.956Z,22.60
2018-09-10T10:13:26.988Z,22.60
2018-09-10T10:15:56.045Z,22.60
2018-09-10T10:18:25.043Z,22.60
2018-09-10T10:20:54.060Z,22.60
2018-09-10T10:23:23.072Z,22.60
2018-09-10T10:25:52.115Z,22.70
2018-09-10T10:28:21.326Z,22.80
2018-09-10T10:30:50.280Z,22.90
2018-09-10T10:33:19.964Z,22.90
2018-09-10T10:35:48.987Z,22.90
2018-09-10T10:38:32.768Z,22.80
2018-09-10T10:41:01.838Z,22.80
2018-09-10T10:43:30.840Z,22.80
2018-09-10T10:45:59.862Z,22.80
2018-09-10T10:48:28.860Z,22.70
2018-09-10T10:50:57.944Z,22.80
2018-09-10T10:53:26.922Z,22.70
2018-09-10T10:55:55.928Z,22.70
2018-09-10T10:58:24.954Z,22.60
2018-09-10T11:00:53.965Z,22.60
2018-09-10T11:03:22.982Z,22.60
2018-09-10T11:05:52.109Z,22.70
2018-09-10T11:08:21.104Z,22.80
2018-09-10T11:10:50.106Z,22.90
2018-09-10T11:13:19.090Z,22.90
2018-09-10T11:15:48.083Z,22.90
2018-09-10T11:18:17.073Z,23.00
2018-09-10T11:20:46.075Z,23.10
2018-09-10T11:23:15.114Z,23.10
2018-09-10T11:25:44.081Z,23.10
2018-09-10T11:28:13.073Z,23.10
2018-09-10T11:30:42.027Z,23.10
2018-09-10T11:33:11.011Z,23.10
2018-09-10T11:35:39.983Z,23.10
2018-09-10T11:38:08.949Z,23.10
2018-09-10T11:40:37.962Z,23.10
2018-09-10T11:43:06.960Z,23.20
2018-09-10T11:45:36.114Z,23.30
2018-09-10T11:48:05.348Z,23.30
2018-09-10T11:50:34.614Z,23.30
2018-09-10T11:53:03.647Z,23.30
2018-09-10T11:55:32.713Z,23.30
2018-09-10T11:58:01.686Z,23.20
2018-09-10T12:00:30.646Z,23.20
2018-09-10T12:02:59.695Z,23.20
2018-09-10T12:05:28.696Z,23.20
2018-09-10T12:07:57.696Z,23.30
2018-09-10T12:10:26.680Z,23.30
2018-09-10T12:12:55.688Z,23.40
2018-09-10T12:15:24.650Z,23.40
2018-09-10T12:17:53.628Z,23.50
2018-09-10T12:20:22.586Z,23.50
2018-09-10T12:22:51.567Z,23.50
2018-09-10T12:25:20.522Z,23.50
2018-09-10T12:27:49.550Z,23.50
2018-09-10T12:30:18.526Z,23.50
2018-09-10T12:32:47.508Z,23.40
2018-09-10T12:35:16.484Z,23.40
2018-09-10T12:37:45.447Z,23.30
2018-09-10T12:40:14.470Z,23.30
2018-09-10T12:42:43.466Z,23.30
2018-09-10T12:45:12.444Z,23.30
2018-09-10T12:47:41.421Z,23.30
2018-09-10T12:50:10.465Z,23.40
2018-09-10T12:52:40.110Z,23.40
2018-09-10T12:55:09.088Z,23.40
2018-09-10T12:57:38.066Z,23.40
2018-09-10T13:00:07.299Z,23.40
2018-09-10T13:02:36.351Z,23.40
2018-09-10T13:05:05.361Z,23.40
2018-09-10T13:07:34.388Z,23.30
2018-09-10T13:10:03.392Z,23.30
2018-09-10T13:12:32.372Z,23.20
2018-09-10T13:15:01.345Z,23.20
2018-09-10T13:17:30.346Z,23.10
2018-09-10T13:19:59.310Z,23.20
2018-09-10T13:22:28.307Z,23.20
2018-09-10T13:24:57.301Z,23.20
2018-09-10T13:27:26.262Z,23.20
2018-09-10T13:29:55.264Z,23.20
2018-09-10T13:32:24.249Z,23.20
2018-09-10T13:34:53.265Z,23.10
2018-09-10T13:37:23.272Z,23.10
2018-09-10T13:39:52.292Z,23.10
2018-09-10T13:42:21.264Z,23.10
2018-09-10T13:44:50.259Z,23.00
2018-09-10T13:47:19.224Z,23.00
2018-09-10T13:49:48.238Z,23.00
2018-09-10T13:52:17.300Z,23.00
2018-09-10T13:54:46.269Z,23.00
2018-09-10T13:57:15.228Z,23.00
2018-09-10T13:59:44.269Z,23.00
2018-09-10T14:02:13.216Z,23.00
2018-09-10T14:04:42.330Z,23.00
2018-09-10T14:07:11.316Z,23.10
2018-09-10T14:09:40.328Z,23.10
2018-09-10T14:12:09.282Z,23.10
2018-09-10T14:14:38.287Z,23.10
2018-09-10T14:17:07.328Z,23.10
2018-09-10T14:19:36.313Z,23.10
2018-09-10T14:22:05.691Z,23.10
2018-09-10T14:24:38.964Z,23.10
2018-09-10T14:27:08.217Z,23.10
2018-09-10T14:29:39.939Z,23.10
2018-09-10T14:32:10.820Z,23.10
2018-09-10T14:34:39.880Z,23.00
2018-09-10T14:37:09.792Z,23.00
2018-09-10T14:39:38.818Z,23.00
2018-09-10T14:42:07.844Z,23.00
2018-09-10T14:44:36.829Z,23.00
2018-09-10T14:47:05.835Z,23.00
2018-09-10T14:49:34.838Z,23.00
2018-09-10T14:52:03.898Z,23.00
2018-09-10T14:54:32.885Z,23.00
2018-09-10T14:57:01.878Z,23.00
2018-09-10T14:59:30.875Z,23.00
2018-09-10T15:01:59.829Z,23.00
2018-09-10T15:04:31.644Z,23.00
2018-09-10T15:07:00.634Z,23.00
2018-09-10T15:09:29.671Z,23.00
2018-09-10T15:11:58.666Z,23.00
2018-09-10T15:14:27.738Z,23.00
2018-09-10T15:16:56.650Z,23.00
2018-09-10T15:19:25.636Z,23.00
2018-09-10T15:21:54.695Z,23.00
2018-09-10T15:24:23.697Z,23.00
2018-09-10T15:26:52.673Z,22.90
2018-09-10T15:29:21.689Z,22.90
2018-09-10T15:31:50.714Z,22.90
2018-09-10T15:34:19.779Z,22.90
2018-09-10T15:36:48.778Z,22.80
2018-09-10T15:39:17.762Z,22.80
2018-09-10T15:41:47.071Z,22.80
2018-09-10T15:44:16.115Z,22.80
2018-09-10T15:46:45.233Z,22.70
2018-09-10T15:49:14.306Z,22.70
2018-09-10T15:51:43.357Z,22.70
2018-09-10T15:54:12.351Z,22.70
2018-09-10T15:56:41.524Z,22.60
2018-09-10T15:59:10.527Z,22.60
2018-09-10T16:01:39.556Z,22.60
2018-09-10T16:04:08.547Z,22.60
2018-09-10T16:06:37.622Z,22.50
2018-09-10T16:09:07.474Z,22.50
2018-09-10T16:11:36.569Z,22.40
2018-09-10T16:14:05.550Z,22.40
2018-09-10T16:16:34.594Z,22.40
2018-09-10T16:19:03.562Z,22.30
2018-09-10T16:21:32.517Z,22.30
2018-09-10T16:24:01.508Z,22.30
2018-09-10T16:26:30.482Z,22.30
2018-09-10T16:28:59.532Z,22.20
2018-09-10T16:31:28.530Z,22.20
2018-09-10T16:33:57.567Z,22.20
2018-09-10T16:36:26.527Z,22.20
2018-09-10T16:38:55.484Z,22.10
2018-09-10T16:41:24.499Z,22.10
2018-09-10T16:43:53.469Z,22.10
2018-09-10T16:46:22.484Z,22.10
2018-09-10T16:48:51.439Z,22.00
2018-09-10T16:51:20.521Z,22.00
2018-09-10T16:53:49.577Z,22.00
2018-09-10T16:56:19.993Z,21.90
2018-09-10T16:58:51.105Z,21.80
2018-09-10T17:01:20.145Z,21.80
2018-09-10T17:03:49.147Z,21.80
2018-09-10T17:06:18.120Z,21.80
2018-09-10T17:08:47.797Z,21.70
2018-09-10T17:11:16.811Z,21.70
2018-09-10T17:13:45.752Z,21.70
2018-09-10T17:16:14.709Z,21.60
2018-09-10T17:18:43.715Z,21.60
2018-09-10T17:21:15.289Z,21.60
2018-09-10T17:23:44.312Z,21.50
2018-09-10T17:26:13.264Z,21.50
2018-09-10T17:28:45.403Z,21.50
2018-09-10T17:31:14.481Z,21.40
2018-09-10T17:33:46.152Z,21.40
2018-09-10T17:36:15.134Z,21.40
2018-09-10T17:38:44.570Z,21.30
2018-09-10T17:41:13.541Z,21.30
2018-09-10T17:43:43.848Z,21.30
2018-09-10T17:46:13.587Z,21.20
2018-09-10T17:48:43.028Z,21.20
2018-09-10T17:51:12.207Z,21.10
2018-09-10T17:53:42.064Z,21.10
2018-09-10T17:56:11.335Z,21.10
2018-09-10T17:58:40.446Z,21.00
2018-09-10T18:01:09.500Z,21.00
2018-09-10T18:03:38.485Z,21.00
2018-09-10T18:06:07.441Z,20.90
2018-09-10T18:08:36.428Z,20.90
2018-09-10T18:11:06.351Z,20.80
2018-09-10T18:13:35.408Z,20.80
2018-09-10T18:16:05.147Z,20.80
2018-09-10T18:18:35.012Z,20.80
2018-09-10T18:21:04.173Z,20.70
2018-09-10T18:23:33.159Z,20.70
2018-09-10T18:26:02.160Z,20.70
2018-09-10T18:28:32.229Z,20.60
2018-09-10T18:31:01.341Z,20.60
2018-09-10T18:33:30.363Z,20.60
2018-09-10T18:35:59.604Z,20.50
2018-09-10T18:38:28.634Z,20.50
2018-09-10T18:40:57.603Z,20.50
2018-09-10T18:43:27.114Z,20.50
2018-09-10T18:45:56.098Z,20.40
2018-09-10T18:48:25.091Z,20.40
2018-09-10T18:50:56.111Z,20.40
2018-09-10T18:53:25.106Z,20.40
2018-09-10T18:55:54.083Z,20.40
2018-09-10T18:58:23.686Z,20.40
2018-09-10T19:00:55.406Z,20.40
2018-09-10T19:03:24.351Z,20.40
2018-09-10T19:05:53.331Z,20.30
2018-09-10T19:08:22.294Z,20.30
2018-09-10T19:10:51.337Z,20.30
2018-09-10T19:13:20.548Z,20.30
2018-09-10T19:15:49.614Z,20.20
2018-09-10T19:18:19.117Z,20.20
2018-09-10T19:20:49.975Z,20.10
2018-09-10T19:23:18.983Z,20.10
2018-09-10T19:25:48.210Z,20.00
2018-09-10T19:28:17.606Z,20.00
2018-09-10T19:30:47.453Z,20.00
2018-09-10T19:33:16.465Z,20.00
2018-09-10T19:35:46.273Z,19.90
2018-09-10T19:38:16.386Z,19.90
2018-09-10T19:40:45.371Z,19.80
2018-09-10T19:43:14.356Z,19.80
2018-09-10T19:45:44.333Z,19.70
2018-09-10T19:48:13.343Z,19.70
2018-09-10T19:50:42.360Z,19.70
2018-09-10T19:53:11.575Z,19.70
2018-09-10T19:55:41.233Z,19.70
2018-09-10T19:58:10.309Z,19.70
2018-09-10T20:00:39.315Z,19.60
2018-09-10T20:03:08.312Z,19.60
2018-09-10T20:05:37.427Z,19.60
2018-09-10T20:08:06.646Z,19.50
2018-09-10T20:10:35.979Z,19.50
2018-09-10T20:13:05.017Z,19.50
2018-09-10T20:15:34.659Z,19.40
2018-09-10T20:18:03.634Z,19.40
2018-09-10T20:20:32.667Z,19.40
2018-09-10T20:23:03.859Z,19.30
2018-09-10T20:25:33.052Z,19.30
2018-09-10T20:28:02.085Z,19.20
2018-09-10T20:30:31.163Z,19.30
2018-09-10T20:33:00.111Z,19.30
2018-09-10T20:35:29.760Z,19.20
2018-09-10T20:37:58.814Z,19.10
2018-09-10T20:40:27.815Z,19.10
2018-09-10T20:42:56.765Z,19.00
2018-09-10T20:45:27.878Z,19.00
2018-09-10T20:47:56.847Z,19.00
2018-09-10T20:50:25.890Z,19.00
2018-09-10T20:52:54.929Z,19.00
2018-09-10T20:55:23.990Z,19.10
2018-09-10T20:57:52.993Z,19.00
2018-09-10T21:00:21.993Z,19.00
2018-09-10T21:02:50.964Z,19.00
2018-09-10T21:05:19.911Z,19.00
2018-09-10T21:07:48.983Z,19.00
2018-09-10T21:10:17.956Z,19.00
2018-09-10T21:12:46.943Z,19.00
2018-09-10T21:15:15.987Z,18.90
2018-09-10T21:17:44.943Z,19.00
2018-09-10T21:20:13.981Z,18.90
2018-09-10T21:22:42.958Z,18.90
2018-09-10T21:25:11.897Z,18.90
2018-09-10T21:27:40.976Z,18.90
2018-09-10T21:30:09.971Z,18.90
2018-09-10T21:32:38.988Z,18.90
2018-09-10T21:35:07.951Z,18.80
2018-09-10T21:37:36.929Z,18.80
2018-09-10T21:40:06.209Z,18.80
2018-09-10T21:42:35.261Z,18.80
2018-09-10T21:45:04.234Z,18.80
2018-09-10T21:47:33.232Z,18.80
2018-09-10T21:50:02.178Z,18.80
2018-09-10T21:52:31.164Z,18.70
2018-09-10T21:55:00.166Z,18.60
2018-09-10T21:57:29.173Z,18.60
2018-09-10T21:59:58.200Z,18.60
2018-09-10T22:02:27.180Z,18.50
2018-09-10T22:04:56.119Z,18.50
2018-09-10T22:07:25.224Z,18.50
2018-09-10T22:09:54.285Z,18.50
2018-09-10T22:12:23.293Z,18.50
2018-09-10T22:14:52.263Z,18.50
2018-09-10T22:17:21.256Z,18.50
2018-09-10T22:19:50.249Z,18.50
2018-09-10T22:22:19.928Z,18.60
2018-09-10T22:24:48.925Z,18.60
2018-09-10T22:27:18.940Z,18.50
2018-09-10T22:29:47.954Z,18.50
2018-09-10T22:32:16.941Z,18.60
2018-09-10T22:34:45.900Z,18.70
2018-09-10T22:37:14.894Z,18.70
2018-09-10T22:39:43.853Z,18.70
2018-09-10T22:42:12.954Z,18.70
2018-09-10T22:44:41.942Z,18.70
2018-09-10T22:47:10.908Z,18.70
2018-09-10T22:49:39.878Z,18.70
2018-09-10T22:52:08.907Z,18.70
2018-09-10T22:54:37.908Z,18.60
2018-09-10T22:57:06.866Z,18.60
2018-09-10T22:59:35.830Z,18.70
2018-09-10T23:02:05.370Z,18.70
2018-09-10T23:04:34.433Z,18.70
2018-09-10T23:07:03.582Z,18.70
2018-09-10T23:09:32.584Z,18.70
2018-09-10T23:12:01.549Z,18.70
2018-09-10T23:14:30.517Z,18.70
2018-09-10T23:16:59.487Z,18.70
2018-09-10T23:19:28.549Z,18.70
2018-09-10T23:21:57.529Z,18.80
2018-09-10T23:24:26.500Z,18.80
2018-09-10T23:26:55.479Z,18.80
2018-09-10T23:29:24.489Z,18.80
2018-09-10T23:31:53.543Z,18.80
2018-09-10T23:34:22.664Z,18.70
2018-09-10T23:36:51.633Z,18.70
2018-09-10T23:39:20.700Z,18.70
2018-09-10T23:41:49.791Z,18.70
2018-09-10T23:44:18.789Z,18.70
2018-09-10T23:46:47.747Z,18.70
2018-09-10T23:49:16.737Z,18.80
2018-09-10T23:51:45.695Z,18.80
2018-09-10T23:54:14.673Z,18.80
2018-09-10T23:56:43.710Z,18.80
2018-09-10T23:59:12.774Z,18.80
